Pilot Magazine UKGA

About You

Log In Register UKGA membership

Flight planning

Flight planning New flightplan NOTAM map LARS map & NOTAMs Danger area, mil. & TRA activations Weather map GPS route download Find waypoints Your waypoints New waypoint

Forums

Forums Currently discussing "Re-validations"

Other items

Articles Events Links News Surveys Tips Other users Feedback UKGA membership About UKGA

TAFs

UK

TAF EGAA 301059Z 3012/3112 35011KT 9999 FEW025 SCT035
      
TAF EGAC 301059Z 3012/3021 02014KT 9999 FEW025 SCT045
      
TAF EGAE 291700Z 2918/2920 02012KT 9999 FEW030
      
TAF AMD EGBB 301132Z 3012/3112 01010KT 9999 SCT030 PROB30 
      TEMPO 3012/3022 4000 SHRA BKN014
      
TAF EGBJ 301052Z 3012/3020 01009KT 9999 SCT030 PROB30 
      TEMPO 3012/3020 6000 SHRA BKN014
      
TAF EGCC 301100Z 3012/3118 01010KT 9999 BKN030 PROB30 
      TEMPO 3015/3024 7000 SHRA 
      BECMG 3115/3118 30005KT
      
TAF EGCK 300758Z 3009/3018 01010KT 9999 SCT020
      
TAF EGCN 301102Z 3012/3112 36013KT 9999 FEW015 BKN020 
      TEMPO 3012/3018 02015G25KT PROB30 
      TEMPO 3012/3112 7000 SHRA BKN014
      
TAF EGDR 301035Z 3012/3021 04015G25KT 9999 FEW025 SCT040 PROB30 
      TEMPO 3015/3021 SCT020
      
TAF EGDY 301323Z 3015/3024 03014KT 9999 SCT030 PROB40 
      TEMPO 3015/3024 8000 -SHRA SCT020 PROB30 
      TEMPO 3021/3024 SCT012
      
TAF EGFF 301108Z 3012/3112 03012KT 9999 SCT030 
      TEMPO 3012/3112 04015G25KT PROB30 
      TEMPO 3012/3021 6000 SHRA BKN012
      
TAF EGGD 301108Z 3012/3112 02012KT 9999 SCT030 
      TEMPO 3012/3112 04015G25KT PROB30 
      TEMPO 3012/3021 6000 SHRA BKN012
      
TAF EGGP 301100Z 3012/3112 01010KT 9999 FEW030 BKN040
      
TAF EGGW 301108Z 3012/3112 02012KT 9999 SCT030 
      TEMPO 3012/3018 02015G25KT 6000 SHRA BKN012
      
TAF EGHC 301051Z 3012/3016 03020KT 9999 SCT030
      
TAF EGHE 301112Z 3009/3018 CNL
      
TAF EGHH 301052Z 3012/3021 01009KT 9999 SCT030 PROB30 
      TEMPO 3012/3020 6000 SHRA BKN014
      
TAF EGHI 301123Z 3012/3021 02010KT 9999 SCT030 PROB30 
      TEMPO 3012/3020 6000 SHRA BKN014
      
TAF EGHQ 301051Z 3012/3021 02009KT 9999 FEW045
      
TAF EGJA 300805Z 3009/3018 04017G29KT 9999 FEW025 BKN040 PROB40 
      TEMPO 3009/3012 7000 SHRA BKN015
      
TAF AMD EGJB 300805Z 3009/3018 04017G29KT 9999 FEW025 BKN040 PROB40 
      TEMPO 3009/3012 7000 SHRA BKN015
      
TAF AMD EGJJ 300805Z 3009/3018 04017G29KT 9999 FEW025 BKN040 PROB30 
      TEMPO 3009/3012 7000 SHRA BKN015
      
TAF COR EGKA 301341Z 3013/3018 02011KT 9999 SCT025 
      TEMPO 3013/3018 6000 SHRA BKN012 PROB40 
      TEMPO 3013/3018 03015G25KT
      
TAF EGKB 301057Z 3012/3021 02012KT 9999 SCT020 
      TEMPO 3012/3021 6000 SHRA BKN010 PROB40 
      TEMPO 3012/3021 03015G25KT
      
TAF EGKK 301057Z 3012/3118 01010KT 9999 SCT030 
      TEMPO 3012/3021 8000 SHRA PROB30 
      TEMPO 3012/3016 03015G25KT BKN012 
      BECMG 3106/3110 07010KT
      
TAF EGLF 301057Z 3012/3021 02011KT 9999 SCT025 
      TEMPO 3012/3021 6000 SHRA BKN012 PROB30 
      TEMPO 3012/3018 03015G25KT
      
TAF EGLL 301055Z 3012/3118 03008KT 9999 SCT030 PROB30 
      TEMPO 3012/3018 04015G25KT 8000 SHRA BKN014
      
TAF EGMC 301057Z 3012/3021 02010KT 9999 SCT025 
      TEMPO 3012/3021 6000 SHRA BKN014 PROB30 
      TEMPO 3012/3021 03015G25KT
      
TAF EGNH 301058Z 3012/3020 01009KT 9999 FEW025 SCT040
      
TAF EGNJ 301058Z 3012/3021 01015G25KT 9999 FEW012 SCT025 PROB30 
      TEMPO 3012/3021 7000 SHRA BKN009
      
TAF EGNM 301102Z 3012/3016 01013KT 9999 SCT020 PROB30 
      TEMPO 3012/3016 02015G25KT 6000 SHRA BKN014
      
TAF EGNR 301058Z 3012/3020 01012KT 9999 SCT035
      
TAF EGNS 301130Z 3013/3021 36012KT 9999 FEW025
      
TAF EGNT 301102Z 3012/3112 02012KT 9999 SCT030 
      TEMPO 3012/3018 02015G25KT PROB30 
      TEMPO 3012/3024 6000 SHRA BKN014 
      BECMG 3100/3103 32005KT
      
TAF EGNV 301058Z 3012/3018 01018G28KT 9999 FEW015 SCT030 PROB30 
      TEMPO 3012/3018 6000 SHRA BKN014
      
TAF EGNX 301052Z 3012/3112 01011KT 9999 SCT030 PROB30 
      TEMPO 3012/3022 7000 SHRA BKN012
      
TAF EGOS 301034Z 3012/3018 35010KT 9999 FEW030 BKN045
      
TAF EGPA 301258Z 3015/3024 32009KT 9999 SCT025 PROB30 
      TEMPO 3015/3024 6000 SHRA BKN014
      
TAF EGPB 301258Z 3015/3024 31014KT 9999 SCT030 PROB30 
      TEMPO 3015/3024 6000 SHRA BKN012
      
TAF EGPC 301258Z 3015/3024 32009KT 9999 SCT025 PROB30 
      TEMPO 3015/3024 6000 SHRA BKN014
      
TAF EGPD 301056Z 3012/3112 32009KT 9999 FEW020 SCT035 PROB30 
      TEMPO 3012/3018 32015G25KT 6000 SHRA BKN014
      
TAF EGPE 301258Z 3015/3024 27007KT 9999 SCT025
      
TAF EGPF 301056Z 3012/3112 36007KT 9999 FEW045
      
TAF EGPH 301056Z 3012/3112 02005KT 9999 SCT045
      
TAF EGPI 301059Z 3012/3019 33013KT 9999 SCT030 PROB30 
      TEMPO 3012/3019 34016G26KT
      
TAF EGPK 301056Z 3012/3112 02005KT 9999 FEW045
      
TAF EGPL 301258Z 3015/3017 33013KT 9999 SCT030 
      TEMPO 3015/3017 6000 SHRA BKN014 PROB30 
      TEMPO 3015/3017 32015G25KT
      
TAF EGPM 301258Z 3015/3020 31014KT 9999 SCT030 PROB30 
      TEMPO 3015/3020 6000 SHRA BKN014
      
TAF EGPN 301059Z 3012/3018 27007KT 9999 SCT047
      
TAF EGPO 301258Z 3015/3024 32010KT 9999 SCT025 
      TEMPO 3015/3024 6000 SHRA BKN014 PROB30 
      TEMPO 3015/3018 32015G25KT
      
TAF EGPU 301059Z 3012/3019 36014KT 9999 SCT045 PROB30 
      TEMPO 3012/3019 34015G25KT
      
TAF EGQK 301312Z 3015/3109 31012KT 9999 FEW018 BKN028 
      TEMPO 3015/3109 4000 -SHRA BKN018 PROB30 
      TEMPO 3018/3109 SCT014 BKN018
      
TAF EGQL 301311Z 3015/3024 02008KT 9999 SCT035 PROB30 
      TEMPO 3015/3018 7000 -SHRA SCT023
      
TAF EGQS 301312Z 3015/3109 31012KT 9999 FEW018 SCT030 
      TEMPO 3015/3109 4000 -SHRA BKN018 PROB30 
      TEMPO 3018/3109 SCT014 BKN018
      
TAF EGSC 301057Z 3012/3019 02009KT 9999 SCT025 
      TEMPO 3012/3019 6000 SHRA BKN014 PROB30 
      TEMPO 3012/3018 03015G25KT
      
TAF EGSH 301056Z 3012/3021 01012KT 9999 SCT035 PROB30 
      TEMPO 3012/3018 01015G25KT 6000 SHRA BKN012
      
TAF EGSS 301108Z 3012/3118 01012KT 9999 SCT030 
      TEMPO 3012/3018 02015G25KT 6000 SHRA BKN012
      
TAF EGSY 301052Z 3012/3017 01009KT 9999 SCT030 PROB30 
      TEMPO 3012/3017 6000 SHRA BKN014
      
TAF EGTC 301057Z 3012/3016 02011KT 9999 SCT022 
      TEMPO 3012/3016 6000 SHRA BKN012 PROB40 3012/3016 02016G26KT
      
TAF EGTE 301051Z 3012/3021 02008KT 9999 SCT030 PROB30 
      TEMPO 3012/3020 8000 -SHRA
      
TAF EGTK 301057Z 3012/3021 02011KT 9999 SCT025 
      TEMPO 3012/3021 6000 SHRA BKN014 PROB40 
      TEMPO 3012/3018 03015G25KT
      
TAF EGUB 301023Z 3012/3021 02010KT 9999 BKN025 
      TEMPO 3012/3013 -RA BKN018 PROB40 
      TEMPO 3012/3013 SCT014 
      TEMPO 3013/3018 7000 SHRA BKN020 
      TEMPO 3018/3021 SCT022
      
TAF EGUL 301350Z 3014/3120 01010G20KT 9999 SCT020 BKN030 QNH3050INS 
      TEMPO 3014/3018 8000 -SHRA 
      BECMG 3017/3018 02010G15KT 9999 BKN015 QNH3048INS 
      BECMG 3101/3102 02005KT 6000 BR BKN010 QNH3051INS 
      BECMG 3106/3107 05012KT 9999 NSW SCT020 QNH3054INS 
      BECMG 3110/3111 04010KT 9999 BKN030 QNH3052INS TX10/3114Z TN02/3106Z LAST NO 
      AMDS AFT 3016 NEXT 3106
      
TAF EGUN 301200Z 3012/3118 01010G20KT 9999 SCT015 BKN020 QNH3050INS 
      TEMPO 3012/3018 8000 -SHRA BKN015 BKN020 
      BECMG 3021/3022 02010G15KT 9999 BKN015 QNH3051INS 
      BECMG 3103/3104 02009KT 8000 BR SCT015 QNH3052INS 
      BECMG 3108/3109 05012KT 9999 NSW BKN025 QNH3046INS TX09/3013Z TN02/3105Z
      
TAF EGUW 301336Z 3015/3024 02014KT 9999 SCT030 
      TEMPO 3015/3019 01015G25KT PROB30 
      TEMPO 3015/3016 6000 SHRA BKN018
      
TAF EGVN 301319Z 3015/3115 03015KT 9999 SCT030 PROB40 
      TEMPO 3015/3021 -SHRA SCT020 PROB30 
      TEMPO 3021/3103 SCT012
      
TAF EGVO 301316Z 3015/3103 02010KT 9999 BKN030 
      TEMPO 3015/3018 7000 SHRA BKN022 PROB30 
      TEMPO 3015/3017 03016G26KT PROB30 
      TEMPO 3018/3024 SCT012
      
TAF EGWU 301327Z 3015/3109 02012KT 9999 FEW022 SCT045 
      TEMPO 3015/3021 SCT018 PROB30 
      TEMPO 3015/3018 03015G25KT 6000 SHRA
      
TAF EGXC 301335Z 3015/3109 02014KT 9999 BKN035 PROB40 
      TEMPO 3015/3018 03015G25KT SCT020 PROB30 
      TEMPO 3018/3022 SCT014 PROB30 3101/3106 5000 BR
      
TAF EGXT 301039Z 3012/3018 02014KT 9999 FEW018 BKN045 
      TEMPO 3012/3018 03015G25KT BKN018 PROB30 
      TEMPO 3012/3018 7000 SHRA SCT014 BKN020
      
TAF EGXW 301350Z 3015/3109 02014KT 9999 FEW020 SCT030 
      TEMPO 3015/3018 02015G25KT PROB40 
      TEMPO 3015/3018 SCT020 PROB30 
      TEMPO 3015/3018 7000 SHRA PROB30 
      TEMPO 3018/3109 SCT018
      
TAF EGYM 301341Z 3015/3018 02014KT 9999 SCT030 PROB40 
      TEMPO 3015/3018 01016G26KT 6000 SHRA SCT012 BKN020
      
TAF EGYP 301310Z 3015/3109 27018G28KT 9999 FEW020 
      TEMPO 3015/3019 7000 SHRA SCT022TCU PROB30 
      TEMPO 3015/3017 25024G38KT 4000 +SHRA SHGS SCT012CB BKN020 
      BECMG 3018/3021 26012KT 
      BECMG 3100/3103 29015G25KT PROB30 
      TEMPO 3105/3109 28025G35KT
      

About You

Log In Register UKGA membership

Airfields

Interactive airfield map Search by name Search by postcode Search by location Fuel prices Pilot reviews Latest
(No favourites selected)

Flight planning

Flight planning New flightplan NOTAM map LARS map & NOTAMs Danger area, mil. & TRA activations Weather map GPS route download Find waypoints Your waypoints New waypoint

Forums

Forums Currently discussing "Re-validations"

Other items

Articles Events Links News Surveys Tips Other users Feedback UKGA membership About UKGA